Airfield :
LOGIN :

Register | Disclaimer

   EN    FR    IT 

 










Legend :    VFR   Marginal VFR   IFR   Intensive IFR   Very Intensive IFR
Visi :
Ceiling :
>= 8 km
>= 3000ft
5 to 8 km
1000 to 3000 ft
1500m to 5 km
500 to 1000 ft
800 to 1500m
200 to 500 ft
< 800m
< 200 ft
Symbols :   Thunderstorms  Fog  Heavy snow  Heavy precipitations  Wind > 20 kt
SIGMETs :     Misc.  Thunderstorms  Icing  Turbulence  Mountain Waves  Volcanic Ashes






- Airport Elevation : 291 ft
- IATA code : ORY


LFPO - Paris-Orly

CURRENT METAR :
  • 090500Z VRB02KT CAVOK 24/15 Q1015 NOSIG

EXPIRED METARs :
  • 090430Z 02004KT CAVOK 24/14 Q1015 NOSIG
  • 090400Z 02002KT CAVOK 24/14 Q1015 NOSIG
  • 090330Z 03003KT CAVOK 24/15 Q1015 NOSIG

TAF TAF LFPO
Valid from the 09 at 06:00 until the 10 at 12:00 UTC


090500Z 0906/1012 VRB05KT CAVOK
TEMPO 0914/0924 -SHRA SCT120CB
PROB30
TEMPO 0915/0918 18015G30KT TSRA
ATIS : +33 1 49 75 65 80



MET'MAP, your aeronautical weather chart ! - Copyright ORBIFLY December 2007 - Disclaimer

ORBIFLY MET'MAP TEAM :

Programming & Development : Alexandra Zaïnal
Concept & original design : Baudouin d'Aumeries
Assistance for programming : Marc-Olivier Méhu
Technical & hardware support : Manuel Goepfert

Contact : metmap@orbifly.com




SOURCES & CREDITS :

   NOAA